Aérodrome :
LOGIN :

S'inscrire | Disclaimer

   EN    FR    IT 

 










Légende :    VFR   VFR Marginal   IFR   IFR Intensif   IFR Très Intensif
Visi : 
Plafond : 
>= 8 km
>= 3000ft
5 à 8 km
1000 à 3000 ft
1500m à 5 km
500 à 1000 ft
800 à 1500m
200 à 500 ft
< 800m
< 200 ft
Symboles :   Orages  Brouillard  Fortes neiges  Fortes précipitations  Vent > 20 kt
SIGMETs :   Divers  Orages  Givrage  Turbulence  Onde Orograph.  Cendres Volcan.







- Altitude de l'aérodrome : 121 ft
- Code IATA : HUY
- Voir les cartes d'approche


EGNJ - Humberside

DERNIER METAR :
  • 141220Z 23018KT 9999 FEW019 05/02 Q0985

METARs EXPIRÉS :
  • 141150Z 23019KT 9999 FEW019 05/02 Q0985
  • 141120Z 22018KT 9999 FEW028 04/02 Q0986
  • 141050Z 22015KT 9999 FEW012 SCT028 04/03 Q0986
  • 141020Z 22013KT 9999 FEW009 SCT025 03/02 Q0986
  • 140950Z 22015KT 9999 FEW009 SCT025 03/02 Q0986

TAF TAF EGNJ
Valide du 14 à 12h jusqu'au 14 à 21h UTC


141059Z 1412/1421 22012KT 9999 SCT025
PROB40
TEMPO 1412/1415 8000 -SHRA BKN012
ATIS : +44 1652 682 020
Pas de NOTAMs connus pour ce terrain.
1 SIGMET publié pour la FIR London (EGTT) :
 
Turbulence forte
EGTT SIGMET 03 VALID 141100/141500 EGRR
EGTT LONDON FIR SEV TURB FCST SW OF LINE N5000 W00019 - N5153 W00620 SFC/FL060 STNR NC=



MET'MAP, la Météo Aéronautique d'un coup d'oeil ! - Copyright ORBIFLY Décembre 2007 - Disclaimer

ORBIFLY MET'MAP TEAM :

Programmation & Développement : Alexandra Zaïnal
Conception & Développement : Baudouin d'Aumeries
Co-Programmation & Développement : Marc-Olivier Méhu
Soutien technique & logistique : Manuel Goepfert

Contact : metmap@orbifly.com




SOURCES & CREDITS :

   NOAA